Time;durP1;ratioP1;P1;durP2;ratioP2;P2;SDS_P1;SDS_P2;PMS_P1;PMS_P2;Temp;Humidity;BMP_temperature;BMP_pressure;BME280_temperature;BME280_humidity;BME280_pressure;Samples;Min_cycle;Max_cycle;Signal;HPM_P1;HPM_P2
2024/03/03 00:02:12;;;;;;;10.00;3.13;;;;;;;5.01;100.00;91651.59;4741029;30;20070;-81
2024/03/03 00:04:38;;;;;;;8.00;3.30;;;;;;;4.97;100.00;91637.63;4733291;30;20605;-81
2024/03/03 00:07:03;;;;;;;7.30;3.65;;;;;;;4.98;100.00;91646.97;4745163;30;20075;-82
2024/03/03 00:09:31;;;;;;;8.30;4.53;;;;;;;4.98;100.00;91642.53;4737611;30;20053;-81
2024/03/03 00:11:57;;;;;;;5.93;3.15;;;;;;;5.03;100.00;91646.13;4730313;30;20047;-81
2024/03/03 00:14:23;;;;;;;8.77;3.80;;;;;;;5.00;100.00;91639.69;4736965;30;20036;-82
2024/03/03 00:16:48;;;;;;;8.30;3.70;;;;;;;5.00;100.00;91639.69;4750085;30;20040;-82
2024/03/03 00:19:14;;;;;;;9.82;4.18;;;;;;;4.99;100.00;91638.13;4743443;30;20032;-81
2024/03/03 00:21:40;;;;;;;8.38;3.20;;;;;;;5.01;100.00;91630.84;4743058;30;20477;-82
2024/03/03 00:24:06;;;;;;;7.78;3.60;;;;;;;5.13;100.00;91638.25;4729282;30;20040;-82
2024/03/03 00:26:33;;;;;;;5.35;2.25;;;;;;;5.42;100.00;91646.03;4734008;30;20392;-82
2024/03/03 00:28:58;;;;;;;6.35;2.90;;;;;;;5.38;100.00;91640.63;4740099;30;20398;-82
2024/03/03 00:31:24;;;;;;;3.30;1.60;;;;;;;5.50;100.00;91657.66;4732974;30;20036;-82
2024/03/03 00:33:49;;;;;;;5.65;3.00;;;;;;;5.43;100.00;91657.97;4748246;30;20044;-82
2024/03/03 00:36:15;;;;;;;8.25;3.00;;;;;;;5.24;100.00;91652.69;4749090;30;20257;-82
2024/03/03 00:38:41;;;;;;;4.97;3.00;;;;;;;5.14;100.00;91656.16;4747692;30;20412;-82
2024/03/03 00:41:07;;;;;;;5.95;2.83;;;;;;;5.19;100.00;91663.13;4721225;30;20044;-82
2024/03/03 00:43:33;;;;;;;3.75;2.58;;;;;;;5.05;100.00;91650.00;4724256;30;20502;-81
2024/03/03 00:45:58;;;;;;;7.10;3.17;;;;;;;5.01;100.00;91665.31;4726247;30;20055;-81
2024/03/03 00:48:24;;;;;;;8.75;2.67;;;;;;;4.99;100.00;91651.84;4726413;30;20538;-81
2024/03/03 00:50:50;;;;;;;5.45;3.40;;;;;;;4.93;100.00;91650.38;4730825;30;20028;-82
2024/03/03 00:53:16;;;;;;;6.82;3.53;;;;;;;4.95;100.00;91657.84;4720545;30;20537;-82
2024/03/03 00:55:46;;;;;;;7.28;3.65;;;;;;;4.94;100.00;91645.94;4735739;30;20064;-82
2024/03/03 00:58:13;;;;;;;8.20;3.60;;;;;;;4.92;100.00;91653.22;4732735;30;20514;-82
2024/03/03 01:00:39;;;;;;;7.20;3.38;;;;;;;4.89;100.00;91638.22;4737377;30;20349;-82
2024/03/03 01:03:05;;;;;;;6.35;3.38;;;;;;;4.91;100.00;91644.66;4736480;30;20508;-82
2024/03/03 01:05:31;;;;;;;6.30;3.38;;;;;;;4.91;100.00;91643.88;4733976;30;20044;-82
2024/03/03 01:07:57;;;;;;;6.53;3.65;;;;;;;4.90;100.00;91637.16;4732319;30;20068;-82
2024/03/03 01:10:22;;;;;;;5.28;3.80;;;;;;;4.90;100.00;91644.94;4737376;30;20064;-82
2024/03/03 01:12:48;;;;;;;6.30;3.70;;;;;;;4.90;100.00;91637.16;4738283;30;20036;-82
2024/03/03 01:15:14;;;;;;;9.38;3.47;;;;;;;4.90;100.00;91635.31;4733299;30;20055;-81
2024/03/03 01:17:41;;;;;;;5.53;3.10;;;;;;;4.90;100.00;91644.94;4735844;30;20045;-82
2024/03/03 01:20:07;;;;;;;4.75;3.08;;;;;;;4.87;100.00;91638.47;4734527;30;20040;-81
2024/03/03 01:22:32;;;;;;;5.47;3.28;;;;;;;4.88;100.00;91631.47;4735352;30;20048;-81
2024/03/03 01:24:58;;;;;;;11.93;3.70;;;;;;;4.87;100.00;91630.69;4730848;30;20567;-81
2024/03/03 01:27:25;;;;;;;6.80;3.20;;;;;;;4.87;100.00;91629.94;4737664;30;20073;-81
2024/03/03 01:29:50;;;;;;;6.65;3.25;;;;;;;4.87;100.00;91619.56;4745660;30;20040;-82
2024/03/03 01:32:16;;;;;;;6.25;3.38;;;;;;;4.86;100.00;91623.19;4748951;30;20040;-82
2024/03/03 01:34:42;;;;;;;4.97;2.90;;;;;;;4.84;100.00;91609.72;4749812;30;20037;-82
2024/03/03 01:37:07;;;;;;;5.38;3.08;;;;;;;4.86;100.00;91607.63;4750530;30;20048;-82
2024/03/03 01:39:36;;;;;;;6.20;2.90;;;;;;;4.99;100.00;91609.59;4738371;30;20443;-82
2024/03/03 01:42:02;;;;;;;6.20;2.83;;;;;;;4.96;100.00;91603.13;4745634;30;20091;-82
2024/03/03 01:44:27;;;;;;;5.05;2.58;;;;;;;4.90;100.00;91601.63;4741144;30;20049;-82
2024/03/03 01:46:54;;;;;;;6.32;2.70;;;;;;;4.90;100.00;91598.25;4729817;30;20473;-82
2024/03/03 01:49:20;;;;;;;5.03;2.90;;;;;;;4.89;100.00;91596.72;4730332;30;20032;-82
2024/03/03 01:51:47;;;;;;;6.32;3.00;;;;;;;4.87;100.00;91599.56;4735651;30;20054;-82
2024/03/03 01:54:13;;;;;;;4.80;3.03;;;;;;;4.87;100.00;91598.81;4738763;30;20051;-82
2024/03/03 01:56:43;;;;;;;6.18;2.97;;;;;;;4.85;100.00;91593.13;4735321;30;20049;-81
2024/03/03 01:59:10;;;;;;;6.20;3.47;;;;;;;4.85;100.00;91593.13;4730667;30;20402;-82
2024/03/03 02:01:37;;;;;;;5.22;3.20;;;;;;;4.83;100.00;91590.03;4735035;30;20045;-82
2024/03/03 02:04:03;;;;;;;7.65;3.20;;;;;;;4.86;100.00;91587.63;4741150;30;20077;-82
2024/03/03 02:06:33;;;;;;;4.03;2.20;;;;;;;4.86;100.00;91594.66;4740229;30;20029;-82
2024/03/03 02:09:00;;;;;;;2.78;1.75;;;;;;;5.02;100.00;91606.44;4738811;30;20074;-82
2024/03/03 02:11:28;;;;;;;7.85;2.65;;;;;;;4.92;100.00;91590.97;4740333;30;20115;-82
2024/03/03 02:13:54;;;;;;;7.43;2.90;;;;;;;4.85;100.00;91585.34;4736767;30;20046;-82
2024/03/03 02:16:20;;;;;;;4.80;2.47;;;;;;;4.91;100.00;91595.41;4742590;30;20037;-82
2024/03/03 02:18:46;;;;;;;5.05;2.40;;;;;;;4.97;100.00;91589.09;4740343;30;20043;-82
2024/03/03 02:21:12;;;;;;;8.30;3.00;;;;;;;4.87;100.00;91588.44;4741098;30;20051;-82
2024/03/03 02:23:38;;;;;;;7.65;2.75;;;;;;;4.83;100.00;91588.19;4743190;30;20391;-82
2024/03/03 02:26:04;;;;;;;4.65;2.92;;;;;;;4.77;100.00;91568.53;4732695;30;20043;-81
2024/03/03 02:28:30;;;;;;;6.85;2.67;;;;;;;4.72;100.00;91576.34;4741927;30;20483;-81
2024/03/03 02:30:55;;;;;;;6.00;3.10;;;;;;;4.73;100.00;91578.69;4742244;30;20140;-81
2024/03/03 02:33:21;;;;;;;5.55;2.45;;;;;;;4.66;100.00;91567.88;4743205;30;20059;-82
2024/03/03 02:35:47;;;;;;;6.82;2.80;;;;;;;4.70;100.00;91575.84;4749746;30;20071;-81
2024/03/03 02:38:12;;;;;;;7.53;3.17;;;;;;;4.64;100.00;91564.78;4751556;30;20463;-82
2024/03/03 02:40:38;;;;;;;5.78;3.05;;;;;;;4.66;100.00;91562.69;4738963;30;20045;-82
2024/03/03 02:43:04;;;;;;;5.63;2.70;;;;;;;4.66;100.00;91565.28;4740974;30;20048;-82
2024/03/03 02:45:30;;;;;;;5.68;2.47;;;;;;;4.63;100.00;91549.47;4743588;30;20095;-82
2024/03/03 02:47:57;;;;;;;5.20;2.97;;;;;;;4.70;100.00;91562.88;4722233;30;20174;-82
2024/03/03 02:50:23;;;;;;;7.32;2.58;;;;;;;4.69;100.00;91561.34;4731676;30;20414;-82
2024/03/03 02:52:49;;;;;;;5.45;2.92;;;;;;;4.69;100.00;91558.75;4735853;30;20052;-82
2024/03/03 02:55:14;;;;;;;5.65;2.60;;;;;;;4.72;100.00;91558.22;4736448;30;20056;-82
2024/03/03 02:57:40;;;;;;;7.50;2.53;;;;;;;4.69;100.00;91556.94;4735574;30;20049;-82
2024/03/03 03:00:06;;;;;;;3.25;2.00;;;;;;;4.71;100.00;91561.88;4737203;30;20032;-82
2024/03/03 03:02:32;;;;;;;5.90;2.10;;;;;;;4.84;100.00;91570.81;4719077;30;20426;-82
2024/03/03 03:04:58;;;;;;;5.32;2.10;;;;;;;4.85;100.00;91567.94;4736314;30;20042;-82
2024/03/03 03:07:24;;;;;;;6.22;2.10;;;;;;;4.74;100.00;91551.69;4734090;30;20116;-80
2024/03/03 03:09:50;;;;;;;5.63;2.17;;;;;;;4.74;100.00;91556.88;4740771;30;20070;-81
2024/03/03 03:12:15;;;;;;;6.97;2.40;;;;;;;4.73;100.00;91557.19;4738578;30;20039;-82
2024/03/03 03:14:41;;;;;;;4.82;2.10;;;;;;;4.72;100.00;91566.75;4743614;30;20037;-81
2024/03/03 03:17:07;;;;;;;5.07;2.25;;;;;;;4.91;100.00;91558.28;4740086;30;20200;-81
2024/03/03 03:19:33;;;;;;;6.57;2.28;;;;;;;4.79;100.00;91562.03;4742194;30;20033;-82
2024/03/03 03:21:59;;;;;;;5.40;2.10;;;;;;;4.75;100.00;91553.25;4741088;30;20051;-82
2024/03/03 03:24:26;;;;;;;5.80;2.13;;;;;;;4.71;100.00;91552.25;4742813;30;20116;-82
2024/03/03 03:26:53;;;;;;;4.63;2.08;;;;;;;4.68;100.00;91545.00;4732146;30;20584;-82
2024/03/03 03:29:18;;;;;;;5.70;2.40;;;;;;;4.69;100.00;91540.63;4735898;30;20545;-82
2024/03/03 03:31:45;;;;;;;6.50;2.10;;;;;;;4.66;100.00;91538.56;4742574;30;20502;-82
2024/03/03 03:34:11;;;;;;;6.70;2.28;;;;;;;4.65;100.00;91534.44;4734697;30;20052;-82
2024/03/03 03:36:36;;;;;;;5.47;2.10;;;;;;;4.56;100.00;91521.28;4746850;30;20044;-82
2024/03/03 03:39:10;;;;;;;8.20;2.20;;;;;;;4.62;100.00;91529.78;4743626;30;20036;-82
2024/03/03 03:41:46;;;;;;;8.75;2.20;;;;;;;4.57;100.00;91528.00;4748142;30;20244;-82
2024/03/03 03:44:12;;;;;;;3.45;1.92;;;;;;;4.69;100.00;91538.03;4747042;30;20108;-82
2024/03/03 03:46:38;;;;;;;4.07;2.08;;;;;;;4.68;100.00;91549.44;4750259;30;20036;-81
2024/03/03 03:49:10;;;;;;;2.63;1.60;;;;;;;4.92;100.00;91550.25;4739943;30;20055;-80
2024/03/03 03:51:37;;;;;;;4.15;2.10;;;;;;;4.84;100.00;91558.63;4732844;30;20141;-81
2024/03/03 03:54:03;;;;;;;5.05;2.00;;;;;;;4.93;100.00;91571.75;4750334;30;20052;-82
2024/03/03 03:56:30;;;;;;;2.83;1.67;;;;;;;5.00;100.00;91580.03;4742136;30;20286;-82
2024/03/03 03:58:55;;;;;;;3.25;2.00;;;;;;;4.82;100.00;91562.53;4753832;30;20502;-82
2024/03/03 04:01:21;;;;;;;3.17;1.90;;;;;;;4.64;100.00;91562.19;4757439;30;20028;-82
2024/03/03 04:03:47;;;;;;;7.22;2.10;;;;;;;4.50;100.00;91569.00;4738290;30;20044;-82
2024/03/03 04:06:13;;;;;;;4.20;2.10;;;;;;;4.53;100.00;91558.88;4757467;30;20043;-82
2024/03/03 04:08:40;;;;;;;5.05;1.77;;;;;;;4.46;100.00;91547.25;4749745;30;20082;-81
2024/03/03 04:11:05;;;;;;;3.10;1.80;;;;;;;4.43;100.00;91538.22;4750890;30;21706;-83
2024/03/03 04:13:31;;;;;;;3.40;2.10;;;;;;;4.44;100.00;91544.19;4752741;30;20138;-82
2024/03/03 04:15:56;;;;;;;3.63;2.00;;;;;;;4.39;100.00;91547.59;4757677;30;20039;-83
2024/03/03 04:18:22;;;;;;;3.42;1.80;;;;;;;4.36;100.00;91548.88;4752056;30;20029;-82
2024/03/03 04:20:47;;;;;;;3.97;1.90;;;;;;;4.35;100.00;91547.34;4759558;30;20150;-83
2024/03/03 04:23:13;;;;;;;6.95;2.30;;;;;;;4.34;100.00;91545.78;4758752;30;20444;-82
2024/03/03 04:25:39;;;;;;;6.07;2.45;;;;;;;4.32;100.00;91540.13;4755616;30;20055;-82
2024/03/03 04:28:04;;;;;;;5.00;2.03;;;;;;;4.32;100.00;91553.09;4757037;30;20124;-82
2024/03/03 04:30:30;;;;;;;7.82;3.35;;;;;;;4.32;100.00;91549.69;4757088;30;20044;-82
2024/03/03 04:32:56;;;;;;;12.43;4.97;;;;;;;4.31;100.00;91545.56;4758866;30;20505;-82
2024/03/03 04:35:21;;;;;;;4.63;2.58;;;;;;;4.28;100.00;91536.53;4763704;30;20101;-82
2024/03/03 04:37:47;;;;;;;4.93;2.50;;;;;;;4.31;100.00;91540.41;4757815;30;20046;-80
2024/03/03 04:40:13;;;;;;;4.10;2.30;;;;;;;4.32;100.00;91550.50;4760682;30;20047;-84
2024/03/03 04:42:39;;;;;;;7.30;2.50;;;;;;;4.35;100.00;91541.41;4751007;30;20044;-80
2024/03/03 04:45:06;;;;;;;4.85;2.00;;;;;;;4.56;100.00;91552.38;4758938;30;20063;-82
2024/03/03 04:47:31;;;;;;;5.45;2.00;;;;;;;4.57;100.00;91554.72;4760178;30;20078;-81
2024/03/03 04:49:57;;;;;;;7.63;2.15;;;;;;;4.53;100.00;91552.94;4758832;30;20048;-82
2024/03/03 04:52:23;;;;;;;5.20;2.30;;;;;;;4.42;100.00;91536.69;4762183;30;20418;-83
2024/03/03 04:54:48;;;;;;;6.65;3.00;;;;;;;4.45;100.00;91545.72;4745560;30;20044;-82
2024/03/03 04:57:13;;;;;;;5.90;2.30;;;;;;;4.40;100.00;91532.81;4756445;30;20044;-83
2024/03/03 04:59:41;;;;;;;5.88;2.10;;;;;;;4.38;100.00;91520.88;4753006;30;20477;-83
2024/03/03 05:02:06;;;;;;;5.10;2.17;;;;;;;4.35;100.00;91521.44;4762856;30;20051;-82
2024/03/03 05:04:32;;;;;;;4.32;1.80;;;;;;;4.31;100.00;91530.78;4744323;30;20579;-82
2024/03/03 05:06:59;;;;;;;4.25;2.03;;;;;;;4.30;100.00;91523.28;4745840;30;20742;-82
2024/03/03 05:09:24;;;;;;;6.40;2.10;;;;;;;4.29;100.00;91526.94;4749081;30;20134;-83
2024/03/03 05:11:50;;;;;;;4.85;1.80;;;;;;;4.27;100.00;91524.59;4749990;30;20221;-83
2024/03/03 05:14:15;;;;;;;4.00;1.80;;;;;;;4.25;100.00;91526.69;4739503;30;20039;-83
2024/03/03 05:16:41;;;;;;;5.25;1.88;;;;;;;4.26;100.00;91523.06;4744040;30;20040;-83
2024/03/03 05:19:08;;;;;;;4.57;1.90;;;;;;;4.26;100.00;91528.25;4750626;30;20224;-82
2024/03/03 05:21:34;;;;;;;3.53;1.80;;;;;;;4.27;100.00;91536.78;4745025;30;20051;-83
2024/03/03 05:24:01;;;;;;;3.78;2.00;;;;;;;4.26;100.00;91527.47;4752128;30;20047;-83
2024/03/03 05:26:26;;;;;;;4.32;2.10;;;;;;;4.25;100.00;91531.09;4750601;30;20051;-82
2024/03/03 05:28:52;;;;;;;4.53;2.10;;;;;;;4.26;100.00;91533.44;4738809;30;20056;-83
2024/03/03 05:31:18;;;;;;;3.00;1.90;;;;;;;4.28;100.00;91528.75;4746838;30;20070;-82
2024/03/03 05:33:44;;;;;;;4.90;2.08;;;;;;;4.31;100.00;91530.78;4753185;30;20306;-82
2024/03/03 05:36:09;;;;;;;3.80;1.92;;;;;;;4.24;100.00;91524.38;4751451;30;20048;-82
2024/03/03 05:38:38;;;;;;;4.05;1.90;;;;;;;4.30;100.00;91533.66;4732172;30;20047;-82
2024/03/03 05:41:05;;;;;;;4.50;2.17;;;;;;;4.20;100.00;91521.56;4753708;30;20320;-82
2024/03/03 05:43:30;;;;;;;5.78;2.35;;;;;;;4.29;100.00;91538.06;4746280;30;20498;-83
2024/03/03 05:45:56;;;;;;;6.38;2.50;;;;;;;4.29;100.00;91538.06;4749988;30;20052;-82
2024/03/03 05:48:22;;;;;;;6.88;2.40;;;;;;;4.28;100.00;91546.09;4745687;30;20118;-83
2024/03/03 05:50:47;;;;;;;2.85;1.73;;;;;;;4.26;100.00;91533.44;4748191;30;20048;-83
2024/03/03 05:53:13;;;;;;;3.30;1.92;;;;;;;4.22;100.00;91527.25;4745909;30;20045;-82
2024/03/03 05:55:39;;;;;;;4.72;2.22;;;;;;;4.25;100.00;91520.75;4748781;30;20051;-83
2024/03/03 05:58:04;;;;;;;4.82;1.83;;;;;;;4.28;100.00;91520.97;4748020;30;20048;-83
2024/03/03 06:00:30;;;;;;;6.18;1.73;;;;;;;4.46;100.00;91531.72;4744341;30;20041;-83
2024/03/03 06:02:55;;;;;;;3.25;1.80;;;;;;;4.49;100.00;91533.78;4749222;30;20032;-83
2024/03/03 06:05:21;;;;;;;4.13;1.90;;;;;;;4.47;100.00;91534.03;4756771;30;20044;-83
2024/03/03 06:07:46;;;;;;;4.53;2.00;;;;;;;4.47;100.00;91533.28;4758645;30;20060;-82
2024/03/03 06:10:12;;;;;;;3.65;1.70;;;;;;;4.45;100.00;91535.34;4753207;30;20092;-83
2024/03/03 06:12:38;;;;;;;4.68;2.03;;;;;;;4.43;100.00;91540.03;4752628;30;20064;-82
2024/03/03 06:15:05;;;;;;;3.00;1.80;;;;;;;4.40;100.00;91530.22;4760963;30;20130;-83
2024/03/03 06:17:31;;;;;;;4.00;1.80;;;;;;;4.42;100.00;91536.69;4757116;30;20094;-83
2024/03/03 06:19:56;;;;;;;6.10;1.70;;;;;;;4.50;100.00;91530.13;4756725;30;20056;-83
2024/03/03 06:22:22;;;;;;;6.30;2.10;;;;;;;4.55;100.00;91543.06;4757504;30;20037;-83
2024/03/03 06:24:47;;;;;;;5.32;1.80;;;;;;;4.53;100.00;91534.78;4756074;30;20111;-83
2024/03/03 06:27:13;;;;;;;6.25;1.90;;;;;;;4.54;100.00;91546.69;4756721;30;20066;-82
2024/03/03 06:29:38;;;;;;;3.53;1.80;;;;;;;4.57;100.00;91556.50;4751638;30;20505;-83
2024/03/03 06:32:04;;;;;;;4.65;1.70;;;;;;;4.67;100.00;91563.44;4751967;30;20036;-83
2024/03/03 06:34:30;;;;;;;3.63;1.77;;;;;;;4.91;100.00;91553.91;4757102;30;20043;-83
2024/03/03 06:36:55;;;;;;;5.53;1.95;;;;;;;4.78;100.00;91570.84;4757616;30;20060;-83
2024/03/03 06:39:21;;;;;;;5.05;1.77;;;;;;;4.76;100.00;91565.16;4753031;30;20546;-83
2024/03/03 06:41:46;;;;;;;3.25;1.73;;;;;;;4.74;100.00;91559.47;4758280;30;20033;-83
2024/03/03 06:44:16;;;;;;;7.88;1.77;;;;;;;4.70;100.00;91566.25;4751924;30;20044;-82
2024/03/03 06:46:44;;;;;;;4.38;2.10;;;;;;;4.59;100.00;91557.81;4749877;30;20093;-83
2024/03/03 06:49:10;;;;;;;5.95;1.90;;;;;;;4.62;100.00;91572.03;4755245;30;20439;-82
2024/03/03 06:51:37;;;;;;;7.63;1.88;;;;;;;4.63;100.00;91573.56;4746378;30;21189;-82
2024/03/03 06:54:03;;;;;;;2.97;1.70;;;;;;;4.61;100.00;91570.47;4756640;30;20048;-82
2024/03/03 06:56:28;;;;;;;5.70;2.00;;;;;;;4.58;100.00;91565.84;4741819;30;20045;-82
2024/03/03 06:58:54;;;;;;;3.67;1.90;;;;;;;4.63;100.00;91567.63;4747443;30;20107;-83
2024/03/03 07:01:20;;;;;;;8.38;1.98;;;;;;;4.57;100.00;91575.44;4759310;30;20437;-83
2024/03/03 07:06:52;;;;;;;4.82;2.00;;;;;;;4.66;100.00;91574.84;4675790;30;20097;-83
2024/03/03 07:09:22;;;;;;;6.25;2.20;;;;;;;4.69;100.00;91580.28;4675770;30;20054;-82
2024/03/03 07:11:48;;;;;;;5.60;2.10;;;;;;;4.72;100.00;91571.94;4708826;30;20055;-82
2024/03/03 07:14:15;;;;;;;4.65;1.92;;;;;;;4.70;100.00;91574.03;4747720;30;20051;-82
2024/03/03 07:16:41;;;;;;;6.93;2.22;;;;;;;4.68;100.00;91581.31;4729204;30;20105;-83
2024/03/03 07:19:07;;;;;;;4.45;2.00;;;;;;;4.74;100.00;91569.09;4746600;30;20381;-82
2024/03/03 07:21:32;;;;;;;3.67;1.55;;;;;;;4.92;100.00;91575.41;4752019;30;20423;-82
2024/03/03 07:23:58;;;;;;;6.75;2.10;;;;;;;4.91;100.00;91584.22;4742579;30;20550;-80
2024/03/03 07:26:24;;;;;;;3.30;1.80;;;;;;;4.85;100.00;91582.75;4749582;30;20101;-81
2024/03/03 07:28:51;;;;;;;3.72;1.98;;;;;;;4.80;100.00;91576.56;4743497;30;20068;-79
2024/03/03 07:31:16;;;;;;;3.90;2.00;;;;;;;4.85;100.00;91575.72;4746067;30;20071;-82
2024/03/03 07:33:42;;;;;;;6.32;2.05;;;;;;;4.86;100.00;91572.06;4753155;30;20067;-81
2024/03/03 07:36:08;;;;;;;5.28;2.10;;;;;;;4.95;100.00;91586.03;4754131;30;20414;-80
2024/03/03 07:38:34;;;;;;;7.65;2.25;;;;;;;4.94;100.00;91573.31;4750722;30;20452;-81
2024/03/03 07:41:00;;;;;;;4.63;1.90;;;;;;;4.95;100.00;91578.25;4751317;30;20287;-81
2024/03/03 07:43:28;;;;;;;4.72;1.95;;;;;;;4.95;100.00;91582.63;4746702;30;20039;-82
2024/03/03 07:45:53;;;;;;;5.30;2.20;;;;;;;5.19;100.00;91580.84;4749988;30;20053;-81
2024/03/03 07:48:25;;;;;;;7.00;1.80;;;;;;;5.14;100.00;91587.94;4751349;30;20066;-81
2024/03/03 07:50:51;;;;;;;6.28;2.03;;;;;;;5.11;100.00;91578.09;4749503;30;20037;-81
2024/03/03 07:53:17;;;;;;;4.60;2.00;;;;;;;5.09;100.00;91580.19;4748858;30;20040;-82
2024/03/03 07:55:43;;;;;;;5.72;2.00;;;;;;;5.09;100.00;91587.97;4753489;30;20059;-80
2024/03/03 07:58:09;;;;;;;5.32;2.00;;;;;;;5.07;100.00;91588.25;4750701;30;20036;-83
2024/03/03 08:00:35;;;;;;;3.10;1.40;;;;;;;5.14;100.00;91591.28;4748723;30;20036;-81
2024/03/03 08:03:05;;;;;;;3.80;1.80;;;;;;;5.09;100.00;91586.16;4751794;30;20051;-80
2024/03/03 08:05:34;;;;;;;6.57;1.90;;;;;;;5.24;100.00;91581.84;4730776;30;20049;-80
2024/03/03 08:08:00;;;;;;;4.68;1.88;;;;;;;5.12;100.00;91580.41;4747723;30;20067;-79
2024/03/03 08:10:27;;;;;;;4.60;1.98;;;;;;;5.16;100.00;91586.59;4745720;30;20134;-81
2024/03/03 08:12:53;;;;;;;5.18;1.83;;;;;;;5.17;100.00;91587.38;4747777;30;20294;-81
2024/03/03 08:15:19;;;;;;;7.22;2.15;;;;;;;5.19;100.00;91590.47;4745398;30;20048;-81
2024/03/03 08:17:45;;;;;;;5.05;1.92;;;;;;;5.22;100.00;91590.72;4749068;30;20044;-81
2024/03/03 08:20:12;;;;;;;3.75;1.83;;;;;;;5.26;100.00;91582.38;4724626;30;20076;-81
2024/03/03 08:22:38;;;;;;;3.33;1.60;;;;;;;5.34;100.00;91581.78;4749905;30;20028;-81
2024/03/03 08:25:07;;;;;;;7.22;1.70;;;;;;;5.38;100.00;91583.53;4752661;30;20529;-83
2024/03/03 08:27:33;;;;;;;3.67;1.70;;;;;;;5.40;100.00;91591.03;4747843;30;20043;-81
2024/03/03 08:29:58;;;;;;;3.00;1.73;;;;;;;5.53;100.00;91590.38;4760799;30;20082;-79
2024/03/03 08:32:24;;;;;;;4.05;1.85;;;;;;;5.54;100.00;91591.94;4745572;30;20033;-82
2024/03/03 08:34:59;;;;;;;4.25;1.73;;;;;;;5.57;100.00;91585.41;4752986;30;20040;-80
2024/03/03 08:37:26;;;;;;;3.83;1.60;;;;;;;5.62;100.00;91586.13;4747140;30;20071;-81
2024/03/03 08:40:08;;;;;;;4.68;1.73;;;;;;;5.60;100.00;91583.00;4757052;30;20078;-81
2024/03/03 08:42:33;;;;;;;3.30;1.70;;;;;;;5.64;100.00;91576.22;4755881;30;20048;-81
2024/03/03 08:45:00;;;;;;;4.63;1.67;;;;;;;5.71;100.00;91588.09;4747988;30;20052;-80
2024/03/03 08:47:25;;;;;;;5.60;2.20;;;;;;;5.76;100.00;91586.22;4752140;30;20032;-80
2024/03/03 08:49:56;;;;;;;4.63;1.90;;;;;;;5.72;100.00;91582.66;4749562;30;20052;-79
2024/03/03 08:52:22;;;;;;;7.90;2.20;;;;;;;5.77;100.00;91579.22;4754764;30;20061;-81
2024/03/03 08:54:48;;;;;;;5.22;2.00;;;;;;;5.73;100.00;91576.38;4756887;30;20418;-82
2024/03/03 08:57:28;;;;;;;4.75;2.33;;;;;;;5.74;100.00;91577.16;4753001;30;20148;-81
2024/03/03 08:59:53;;;;;;;3.72;2.22;;;;;;;5.80;100.00;91578.66;4744514;30;20063;-80
2024/03/03 09:02:19;;;;;;;5.93;1.92;;;;;;;5.86;100.00;91577.53;4738925;30;20044;-82
2024/03/03 09:04:45;;;;;;;5.32;2.10;;;;;;;5.91;100.00;91568.91;4749210;30;20029;-82
2024/03/03 09:07:10;;;;;;;3.80;1.92;;;;;;;5.95;100.00;91569.94;4738927;30;20052;-81
2024/03/03 09:09:53;;;;;;;5.55;1.70;;;;;;;6.02;100.00;91570.34;4740361;30;20048;-81
2024/03/03 09:12:19;;;;;;;;;;;;;;;6.07;100.00;91557.28;4740916;30;20067;-81
2024/03/03 09:14:44;;;;;;;5.22;2.00;;;;;;;6.15;100.00;91563.69;4727504;30;19973;-82
2024/03/03 09:17:10;;;;;;;6.38;2.13;;;;;;;6.14;100.00;91562.91;4743214;30;20198;-81
2024/03/03 09:19:36;;;;;;;4.32;1.73;;;;;;;6.36;100.00;91559.75;4738694;30;20645;-81
2024/03/03 09:22:04;;;;;;;3.28;1.48;;;;;;;6.27;100.00;91558.06;4738313;30;20037;-80
2024/03/03 09:24:29;;;;;;;4.20;1.60;;;;;;;6.21;100.00;91550.34;4739298;30;20117;-82
2024/03/03 09:26:55;;;;;;;4.90;2.15;;;;;;;6.25;100.00;91555.75;4746239;30;20961;-83
2024/03/03 09:29:22;;;;;;;3.53;1.73;;;;;;;6.20;100.00;91548.78;4721039;30;20024;-81
2024/03/03 09:31:52;;;;;;;3.80;1.90;;;;;;;6.22;100.00;91551.13;4736775;30;20449;-80
2024/03/03 09:34:18;;;;;;;6.15;2.67;;;;;;;6.27;100.00;91556.25;4737058;30;20028;-81
2024/03/03 09:36:44;;;;;;;6.38;2.30;;;;;;;6.29;100.00;91550.78;4738930;30;20091;-82
2024/03/03 09:39:10;;;;;;;3.83;2.17;;;;;;;6.33;100.00;91554.34;4738346;30;20146;-81
2024/03/03 09:41:38;;;;;;;6.00;1.90;;;;;;;6.34;100.00;91561.09;4744114;30;20044;-81
2024/03/03 09:44:10;;;;;;;3.80;1.75;;;;;;;6.36;100.00;91558.97;4741974;30;20037;-80
2024/03/03 09:46:38;;;;;;;3.17;1.75;;;;;;;6.37;100.00;91552.72;4739899;30;20048;-80
2024/03/03 09:49:08;;;;;;;4.25;1.50;;;;;;;6.43;100.00;91549.75;4741590;30;20067;-80
2024/03/03 09:51:33;;;;;;;4.22;1.60;;;;;;;6.37;100.00;91542.31;4738908;30;20039;-81
2024/03/03 09:54:01;;;;;;;7.78;2.25;;;;;;;6.35;100.00;91554.81;4739485;30;20052;-81
2024/03/03 09:56:31;;;;;;;4.10;1.90;;;;;;;6.31;100.00;91549.44;4743782;30;20067;-79
2024/03/03 09:58:57;;;;;;;8.52;1.83;;;;;;;6.25;100.00;91542.75;4751058;30;20486;-80
2024/03/03 10:01:23;;;;;;;3.20;1.55;;;;;;;6.23;100.00;91550.06;4746149;30;20036;-79
2024/03/03 10:03:49;;;;;;;3.90;1.85;;;;;;;6.21;100.00;91542.56;4744058;30;20095;-80
2024/03/03 10:06:20;;;;;;;3.58;2.00;;;;;;;6.24;100.00;91541.22;4747178;30;20074;-81
2024/03/03 10:08:50;;;;;;;5.63;1.60;;;;;;;6.39;100.00;91548.78;4752460;30;20036;-80
2024/03/03 10:11:19;;;;;;;6.40;1.90;;;;;;;6.25;100.00;91542.75;4749211;30;20119;-80
2024/03/03 10:13:47;;;;;;;7.43;1.58;;;;;;;6.22;100.00;91548.53;4755034;30;20051;-80
2024/03/03 10:16:17;;;;;;;4.35;1.70;;;;;;;6.19;100.00;91554.25;4752953;30;20040;-79
2024/03/03 10:18:42;;;;;;;6.90;2.65;;;;;;;6.16;100.00;91547.03;4753820;30;20110;-81
2024/03/03 10:21:12;;;;;;;5.03;2.67;;;;;;;6.14;100.00;91543.94;4752151;30;20044;-80
2024/03/03 10:23:38;;;;;;;5.50;2.40;;;;;;;6.10;100.00;91545.56;4753303;30;20395;-80
2024/03/03 10:26:04;;;;;;;5.10;2.13;;;;;;;6.08;100.00;91542.47;4752665;30;20051;-80
2024/03/03 10:28:30;;;;;;;4.95;2.08;;;;;;;5.96;100.00;91556.66;4749826;30;20040;-80
2024/03/03 10:31:13;;;;;;;5.03;1.90;;;;;;;5.92;100.00;91549.66;4744817;30;20051;-80
2024/03/03 10:33:53;;;;;;;5.38;3.40;;;;;;;6.13;100.00;91555.41;4746127;30;20106;-80
2024/03/03 10:36:20;;;;;;;6.57;2.60;;;;;;;6.02;100.00;91559.97;4742786;30;20704;-79
2024/03/03 10:38:52;;;;;;;4.72;2.00;;;;;;;5.94;100.00;91556.16;4743191;30;20075;-80
2024/03/03 10:41:18;;;;;;;5.82;2.58;;;;;;;5.90;100.00;91552.56;4741766;30;20365;-79
2024/03/03 10:43:43;;;;;;;5.82;2.33;;;;;;;6.13;100.00;91560.59;4738894;30;20048;-80
2024/03/03 10:46:09;;;;;;;4.70;2.42;;;;;;;5.87;100.00;91555.69;4742985;30;20036;-79
2024/03/03 10:48:34;;;;;;;4.82;2.50;;;;;;;5.59;100.00;91558.13;4746199;30;20513;-79
2024/03/03 10:51:00;;;;;;;4.68;1.80;;;;;;;5.55;100.00;91566.75;4735840;30;20109;-79
2024/03/03 10:53:26;;;;;;;4.35;2.60;;;;;;;5.53;100.00;91554.03;4739249;30;21225;-79
2024/03/03 10:55:54;;;;;;;5.22;2.28;;;;;;;5.59;100.00;91557.34;4755572;30;20051;-80
2024/03/03 10:58:21;;;;;;;4.65;2.10;;;;;;;5.62;100.00;91547.16;4752190;30;20041;-79
2024/03/03 11:00:48;;;;;;;5.50;1.95;;;;;;;5.71;100.00;91543.97;4753442;30;20063;-79
2024/03/03 11:03:15;;;;;;;4.30;2.00;;;;;;;5.82;100.00;91537.59;4753122;30;20063;-80
2024/03/03 11:05:42;;;;;;;6.28;2.53;;;;;;;5.91;100.00;91542.94;4755679;30;20473;-79
2024/03/03 11:08:11;;;;;;;5.32;2.65;;;;;;;5.94;100.00;91543.16;4753870;30;20028;-77
2024/03/03 11:10:37;;;;;;;5.60;3.03;;;;;;;5.98;100.00;91543.38;4746876;30;20044;-79
2024/03/03 11:13:04;;;;;;;4.25;2.38;;;;;;;5.96;100.00;91538.47;4744037;30;20048;-80
2024/03/03 11:15:35;;;;;;;2.67;1.60;;;;;;;5.94;100.00;91531.97;4724613;30;20045;-76
2024/03/03 11:18:04;;;;;;;6.80;2.80;;;;;;;5.81;100.00;91533.47;4744108;30;20044;-78
2024/03/03 11:20:35;;;;;;;36.53;12.52;;;;;;;5.68;100.00;91531.53;4748687;30;20568;-79
2024/03/03 11:23:23;;;;;;;7.18;3.20;;;;;;;5.57;100.00;91523.88;4743616;30;20120;-78
2024/03/03 11:26:12;;;;;;;5.55;2.10;;;;;;;5.50;100.00;91520.84;4742415;30;20051;-82
2024/03/03 11:28:46;;;;;;;3.83;2.00;;;;;;;5.55;100.00;91517.41;4739527;30;20036;-79
2024/03/03 11:31:12;;;;;;;5.28;2.13;;;;;;;5.56;100.00;91521.53;4756788;30;20040;-81
2024/03/03 11:33:39;;;;;;;5.90;2.13;;;;;;;5.59;100.00;91513.97;4752778;30;20119;-81
2024/03/03 11:36:07;;;;;;;5.82;2.03;;;;;;;5.67;100.00;91512.56;4751195;30;20122;-82